createdAt,value
2018-07-31T00:01:32.464Z,6.30
2018-07-31T00:04:00.299Z,5.73
2018-07-31T00:06:28.113Z,6.40
2018-07-31T00:08:56.565Z,6.33
2018-07-31T00:11:24.780Z,6.30
2018-07-31T00:13:52.923Z,5.87
2018-07-31T00:16:20.832Z,5.73
2018-07-31T00:18:48.747Z,5.73
2018-07-31T00:21:16.543Z,6.00
2018-07-31T00:23:44.387Z,6.00
2018-07-31T00:26:12.258Z,6.07
2018-07-31T00:28:40.096Z,6.07
2018-07-31T00:31:07.954Z,6.17
2018-07-31T00:33:35.733Z,6.10
2018-07-31T00:36:03.879Z,6.00
2018-07-31T00:38:31.703Z,6.37
2018-07-31T00:40:59.555Z,6.13
2018-07-31T00:43:27.363Z,6.60
2018-07-31T00:45:55.870Z,6.73
2018-07-31T00:48:23.728Z,6.23
2018-07-31T00:50:51.567Z,6.87
2018-07-31T00:53:19.348Z,6.60
2018-07-31T00:55:47.223Z,6.47
2018-07-31T00:58:15.007Z,7.63
2018-07-31T01:00:42.869Z,7.37
2018-07-31T01:03:10.743Z,6.73
2018-07-31T01:05:38.519Z,6.30
2018-07-31T01:08:06.478Z,6.83
2018-07-31T01:10:34.259Z,6.87
2018-07-31T01:13:02.079Z,6.03
2018-07-31T01:15:29.860Z,7.37
2018-07-31T01:17:57.719Z,7.07
2018-07-31T01:20:25.505Z,6.73
2018-07-31T01:22:53.444Z,6.97
2018-07-31T01:25:21.282Z,6.67
2018-07-31T01:27:49.110Z,6.87
2018-07-31T01:30:17.021Z,7.20
2018-07-31T01:32:44.865Z,7.13
2018-07-31T01:35:12.714Z,6.50
2018-07-31T01:37:40.507Z,7.30
2018-07-31T01:40:08.319Z,6.83
2018-07-31T01:42:36.106Z,6.80
2018-07-31T01:45:04.100Z,6.93
2018-07-31T01:47:31.926Z,6.63
2018-07-31T01:49:59.765Z,6.67
2018-07-31T01:52:27.620Z,7.17
2018-07-31T01:54:55.447Z,6.87
2018-07-31T01:57:23.238Z,6.93
2018-07-31T01:59:51.095Z,6.73
2018-07-31T02:02:18.908Z,6.57
2018-07-31T02:04:46.730Z,6.80
2018-07-31T02:07:14.523Z,6.50
2018-07-31T02:09:42.292Z,6.50
2018-07-31T02:12:10.368Z,7.10
2018-07-31T02:14:38.159Z,6.67
2018-07-31T02:17:06.108Z,6.50
2018-07-31T02:19:33.949Z,6.63
2018-07-31T02:22:01.875Z,6.67
2018-07-31T02:24:29.768Z,6.73
2018-07-31T02:26:57.635Z,8.13
2018-07-31T02:29:31.114Z,7.73
2018-07-31T02:31:58.963Z,6.23
2018-07-31T02:34:26.787Z,7.33
2018-07-31T02:36:54.660Z,7.07
2018-07-31T02:39:22.541Z,7.20
2018-07-31T02:41:50.433Z,6.70
2018-07-31T02:44:18.211Z,7.03
2018-07-31T02:46:46.103Z,6.63
2018-07-31T02:49:13.898Z,6.83
2018-07-31T02:51:41.692Z,6.97
2018-07-31T02:54:09.748Z,7.20
2018-07-31T02:56:37.561Z,6.93
2018-07-31T02:59:05.455Z,7.33
2018-07-31T03:01:33.292Z,6.90
2018-07-31T03:04:01.165Z,6.93
2018-07-31T03:06:29.464Z,7.10
2018-07-31T03:08:57.328Z,7.50
2018-07-31T03:11:25.235Z,7.03
2018-07-31T03:13:53.047Z,7.73
2018-07-31T03:16:20.893Z,7.00
2018-07-31T03:18:48.696Z,7.23
2018-07-31T03:21:16.459Z,7.50
2018-07-31T03:23:44.279Z,9.00
2018-07-31T03:26:12.120Z,7.87
2018-07-31T03:28:39.976Z,8.40
2018-07-31T03:31:07.815Z,8.13
2018-07-31T03:33:35.650Z,8.70
2018-07-31T03:36:03.452Z,8.00
2018-07-31T03:38:31.269Z,8.37
2018-07-31T03:40:59.091Z,7.60
2018-07-31T03:43:26.947Z,7.77
2018-07-31T03:45:54.747Z,7.10
2018-07-31T03:48:22.610Z,7.60
2018-07-31T03:50:50.477Z,8.03
2018-07-31T03:53:18.358Z,7.20
2018-07-31T03:55:46.211Z,6.83
2018-07-31T03:58:14.049Z,7.83
2018-07-31T04:00:41.843Z,7.20
2018-07-31T04:03:09.632Z,7.20
2018-07-31T04:05:37.436Z,7.83
2018-07-31T04:08:05.320Z,7.40
2018-07-31T04:10:33.310Z,7.17
2018-07-31T04:13:01.136Z,6.90
2018-07-31T04:15:29.004Z,7.17
2018-07-31T04:17:57.767Z,6.93
2018-07-31T04:20:26.535Z,7.80
2018-07-31T04:22:54.422Z,7.03
2018-07-31T04:25:22.620Z,7.10
2018-07-31T04:27:50.467Z,8.00
2018-07-31T04:30:18.304Z,7.43
2018-07-31T04:32:46.107Z,7.33
2018-07-31T04:35:13.957Z,7.67
2018-07-31T04:37:41.698Z,7.70
2018-07-31T04:40:09.575Z,7.13
2018-07-31T04:42:37.463Z,7.60
2018-07-31T04:45:07.468Z,7.83
2018-07-31T04:47:35.794Z,7.63
2018-07-31T04:50:03.751Z,7.17
2018-07-31T04:52:31.627Z,5.47
2018-07-31T04:54:59.508Z,8.13
2018-07-31T04:57:27.335Z,7.53
2018-07-31T04:59:55.195Z,7.90
2018-07-31T05:02:23.384Z,8.13
2018-07-31T05:04:51.263Z,7.83
2018-07-31T05:07:19.208Z,7.97
2018-07-31T05:09:47.020Z,7.50
2018-07-31T05:12:15.199Z,7.50
2018-07-31T05:14:43.070Z,7.30
2018-07-31T05:17:11.012Z,7.87
2018-07-31T05:19:38.877Z,7.30
2018-07-31T05:22:06.739Z,6.80
2018-07-31T05:24:34.734Z,7.13
2018-07-31T05:27:02.617Z,6.70
2018-07-31T05:29:30.495Z,6.90
2018-07-31T05:31:58.388Z,6.47
2018-07-31T05:34:26.269Z,6.80
2018-07-31T05:36:54.140Z,7.03
2018-07-31T05:39:21.995Z,7.03
2018-07-31T05:41:49.859Z,6.27
2018-07-31T05:44:18.092Z,6.47
2018-07-31T05:46:46.023Z,6.27
2018-07-31T05:49:13.795Z,6.13
2018-07-31T05:51:41.723Z,6.73
2018-07-31T05:54:09.775Z,6.37
2018-07-31T05:56:37.583Z,6.50
2018-07-31T05:59:05.347Z,6.03
2018-07-31T06:01:33.176Z,6.20
2018-07-31T06:04:01.016Z,6.03
2018-07-31T06:06:28.819Z,7.13
2018-07-31T06:08:56.715Z,6.07
2018-07-31T06:11:24.601Z,6.47
2018-07-31T06:13:52.727Z,5.63
2018-07-31T06:16:20.584Z,6.40
2018-07-31T06:18:48.396Z,5.97
2018-07-31T06:21:16.306Z,6.50
2018-07-31T06:23:44.144Z,6.30
2018-07-31T06:26:11.960Z,6.17
2018-07-31T06:28:39.797Z,6.37
2018-07-31T06:31:07.855Z,7.13
2018-07-31T06:33:35.734Z,6.47
2018-07-31T06:36:03.679Z,6.83
2018-07-31T06:38:31.495Z,6.70
2018-07-31T06:40:59.395Z,6.97
2018-07-31T06:43:27.292Z,7.93
2018-07-31T06:45:55.107Z,6.77
2018-07-31T06:48:22.947Z,7.10
2018-07-31T06:50:50.801Z,7.30
2018-07-31T06:53:18.627Z,6.37
2018-07-31T06:55:46.567Z,6.83
2018-07-31T06:58:14.431Z,5.63
2018-07-31T07:00:42.306Z,5.57
2018-07-31T07:03:10.091Z,5.60
2018-07-31T07:05:37.867Z,5.40
2018-07-31T07:08:05.707Z,5.30
2018-07-31T07:10:33.642Z,6.20
2018-07-31T07:13:01.461Z,6.30
2018-07-31T07:15:29.304Z,6.30
2018-07-31T07:17:57.205Z,5.80
2018-07-31T07:20:24.991Z,5.67
2018-07-31T07:22:52.807Z,5.87
2018-07-31T07:25:20.682Z,4.83
2018-07-31T07:27:48.524Z,6.07
2018-07-31T07:30:16.341Z,5.57
2018-07-31T07:32:44.159Z,5.67
2018-07-31T07:35:11.964Z,5.70
2018-07-31T07:37:39.904Z,5.73
2018-07-31T07:40:07.746Z,5.37
2018-07-31T07:42:35.545Z,5.07
2018-07-31T07:45:03.804Z,5.23
2018-07-31T07:47:31.613Z,4.87
2018-07-31T07:49:59.403Z,5.40
2018-07-31T07:52:27.200Z,5.50
2018-07-31T07:54:55.076Z,5.33
2018-07-31T07:57:22.891Z,5.67
2018-07-31T07:59:50.718Z,5.07
2018-07-31T08:02:18.576Z,5.67
2018-07-31T08:04:46.455Z,5.43
2018-07-31T08:07:14.251Z,5.30
2018-07-31T08:09:42.089Z,5.03
2018-07-31T08:12:09.972Z,6.00
2018-07-31T08:14:37.711Z,5.67
2018-07-31T08:17:05.551Z,5.47
2018-07-31T08:19:33.356Z,5.70
2018-07-31T08:22:01.234Z,5.20
2018-07-31T08:24:28.992Z,5.27
2018-07-31T08:26:56.783Z,5.23
2018-07-31T08:29:24.621Z,5.17
2018-07-31T08:31:52.416Z,5.03
2018-07-31T08:34:20.257Z,5.43
2018-07-31T08:36:48.076Z,5.00
2018-07-31T08:39:15.839Z,5.17
2018-07-31T08:41:43.601Z,5.13
2018-07-31T08:44:11.497Z,5.17
2018-07-31T08:46:39.283Z,4.67
2018-07-31T08:49:07.107Z,5.43
2018-07-31T08:51:34.926Z,5.20
2018-07-31T08:54:02.812Z,5.03
2018-07-31T08:56:30.616Z,5.10
2018-07-31T08:58:58.451Z,4.93
2018-07-31T09:01:26.368Z,5.03
2018-07-31T09:03:54.193Z,5.33
2018-07-31T09:06:22.037Z,5.10
2018-07-31T09:08:49.863Z,4.70
2018-07-31T09:11:17.652Z,5.07
2018-07-31T09:13:45.539Z,4.83
2018-07-31T09:16:13.384Z,4.90
2018-07-31T09:18:41.171Z,4.70
2018-07-31T09:21:09.120Z,5.17
2018-07-31T09:23:37.019Z,5.10
2018-07-31T09:26:04.864Z,5.17
2018-07-31T09:28:32.688Z,4.83
2018-07-31T09:31:06.454Z,5.37
2018-07-31T09:33:34.158Z,5.40
2018-07-31T09:36:02.039Z,5.00
2018-07-31T09:38:29.868Z,5.30
2018-07-31T09:40:57.678Z,5.73
2018-07-31T09:43:25.599Z,4.70
2018-07-31T09:45:53.444Z,5.03
2018-07-31T09:48:21.291Z,5.13
2018-07-31T09:50:49.112Z,4.90
2018-07-31T09:53:16.943Z,4.67
2018-07-31T09:55:44.821Z,4.77
2018-07-31T09:58:12.624Z,5.47
2018-07-31T10:00:46.059Z,5.40
2018-07-31T10:03:13.906Z,5.20
2018-07-31T10:05:41.739Z,5.27
2018-07-31T10:08:09.652Z,4.87
2018-07-31T10:10:37.510Z,5.03
2018-07-31T10:13:05.477Z,5.23
2018-07-31T10:15:33.383Z,5.00
2018-07-31T10:18:01.224Z,5.10
2018-07-31T10:20:29.087Z,4.93
2018-07-31T10:22:56.855Z,5.60
2018-07-31T10:25:24.670Z,4.70
2018-07-31T10:27:52.470Z,5.20
2018-07-31T10:30:20.267Z,4.87
2018-07-31T10:32:48.031Z,4.33
2018-07-31T10:35:15.807Z,4.87
2018-07-31T10:37:43.761Z,4.37
2018-07-31T10:40:11.538Z,4.53
2018-07-31T10:42:39.409Z,4.30
2018-07-31T10:45:07.254Z,4.27
2018-07-31T10:47:35.028Z,4.33
2018-07-31T10:50:02.888Z,4.77
2018-07-31T10:52:30.611Z,4.17
2018-07-31T10:54:58.460Z,4.80
2018-07-31T10:57:26.210Z,4.37
2018-07-31T10:59:53.998Z,3.80
2018-07-31T11:02:21.762Z,4.30
2018-07-31T11:04:49.619Z,4.12
2018-07-31T11:07:17.573Z,4.22
2018-07-31T11:09:45.343Z,4.05
2018-07-31T11:12:13.242Z,4.60
2018-07-31T11:14:41.095Z,3.87
2018-07-31T11:17:08.969Z,4.08
2018-07-31T11:19:36.839Z,4.15
2018-07-31T11:22:04.624Z,4.17
2018-07-31T11:24:32.445Z,4.47
2018-07-31T11:27:00.330Z,4.62
2018-07-31T11:29:28.147Z,4.83
2018-07-31T11:31:56.019Z,4.75
2018-07-31T11:34:23.801Z,4.37
2018-07-31T11:36:51.606Z,4.80
2018-07-31T11:39:19.535Z,4.75
2018-07-31T11:41:47.421Z,4.53
2018-07-31T11:44:15.163Z,4.30
2018-07-31T11:46:42.976Z,4.33
2018-07-31T11:49:10.903Z,4.05
2018-07-31T11:51:38.707Z,4.15
2018-07-31T11:54:06.635Z,4.83
2018-07-31T11:56:34.488Z,4.58
2018-07-31T11:59:02.305Z,4.25
2018-07-31T12:01:30.187Z,3.90
2018-07-31T12:03:58.072Z,4.08
2018-07-31T12:06:25.931Z,4.37
2018-07-31T12:08:53.757Z,4.45
2018-07-31T12:11:21.569Z,3.80
2018-07-31T12:13:49.477Z,4.22
2018-07-31T12:16:17.287Z,4.08
2018-07-31T12:18:45.127Z,4.17
2018-07-31T12:21:12.929Z,4.83
2018-07-31T12:23:40.684Z,4.37
2018-07-31T12:26:08.481Z,4.22
2018-07-31T12:28:36.322Z,4.40
2018-07-31T12:31:04.187Z,4.80
2018-07-31T12:33:32.089Z,4.20
2018-07-31T12:35:59.880Z,4.62
2018-07-31T12:38:27.677Z,4.33
2018-07-31T12:40:55.523Z,4.55
2018-07-31T12:43:23.329Z,4.12
2018-07-31T12:45:51.147Z,4.47
2018-07-31T12:48:18.960Z,4.37
2018-07-31T12:50:46.782Z,4.83
2018-07-31T12:53:14.648Z,4.17
2018-07-31T12:55:42.417Z,4.33
2018-07-31T12:58:10.243Z,4.67
2018-07-31T13:00:38.299Z,4.45
2018-07-31T13:03:06.171Z,4.05
2018-07-31T13:05:33.933Z,4.47
2018-07-31T13:08:01.787Z,4.55
2018-07-31T13:10:29.627Z,4.20
2018-07-31T13:12:57.467Z,3.80
2018-07-31T13:15:25.252Z,4.05
2018-07-31T13:17:53.048Z,4.47
2018-07-31T13:20:20.859Z,4.58
2018-07-31T13:22:48.705Z,4.20
2018-07-31T13:25:16.555Z,4.28
2018-07-31T13:27:44.581Z,4.67
2018-07-31T13:30:12.343Z,4.37
2018-07-31T13:32:40.187Z,4.53
2018-07-31T13:35:07.963Z,3.85
2018-07-31T13:37:35.743Z,3.95
2018-07-31T13:40:03.643Z,4.30
2018-07-31T13:42:31.487Z,3.95
2018-07-31T13:44:59.283Z,4.10
2018-07-31T13:47:27.104Z,4.50
2018-07-31T13:49:54.914Z,4.20
2018-07-31T13:52:22.691Z,4.55
2018-07-31T13:54:50.535Z,4.47
2018-07-31T13:57:18.395Z,4.30
2018-07-31T13:59:46.216Z,3.95
2018-07-31T14:02:14.030Z,3.90
2018-07-31T14:04:41.730Z,4.37
2018-07-31T14:07:09.636Z,3.87
2018-07-31T14:09:37.464Z,3.67
2018-07-31T14:12:05.330Z,4.62
2018-07-31T14:14:33.111Z,5.97
2018-07-31T14:17:00.903Z,5.95
2018-07-31T14:19:28.719Z,4.33
2018-07-31T14:21:56.571Z,4.10
2018-07-31T14:24:24.441Z,3.75
2018-07-31T14:26:52.251Z,4.75
2018-07-31T14:29:20.124Z,4.17
2018-07-31T14:31:47.935Z,4.90
2018-07-31T14:34:15.732Z,4.20
2018-07-31T14:36:43.563Z,4.72
2018-07-31T14:39:11.375Z,3.85
2018-07-31T14:41:39.298Z,4.42
2018-07-31T14:44:07.320Z,4.03
2018-07-31T14:46:35.223Z,4.50
2018-07-31T14:49:03.078Z,4.60
2018-07-31T14:51:30.887Z,4.15
2018-07-31T14:53:58.707Z,4.53
2018-07-31T14:56:26.863Z,4.28
2018-07-31T14:58:54.684Z,4.47
2018-07-31T15:01:22.828Z,4.28
2018-07-31T15:03:50.745Z,4.00
2018-07-31T15:06:18.513Z,3.50
2018-07-31T15:08:46.351Z,3.92
2018-07-31T15:11:14.280Z,3.95
2018-07-31T15:13:41.963Z,3.87
2018-07-31T15:16:09.775Z,4.10
2018-07-31T15:18:37.696Z,4.47
2018-07-31T15:21:05.600Z,4.40
2018-07-31T15:23:33.463Z,4.20
2018-07-31T15:26:01.328Z,4.53
2018-07-31T15:28:29.151Z,4.15
2018-07-31T15:30:57.239Z,3.90
2018-07-31T15:33:25.427Z,5.10
2018-07-31T15:35:54.040Z,4.22
2018-07-31T15:38:21.859Z,4.20
2018-07-31T15:40:49.656Z,4.80
2018-07-31T15:43:17.535Z,4.97
2018-07-31T15:45:45.443Z,4.55
2018-07-31T15:48:13.292Z,4.42
2018-07-31T15:50:41.211Z,4.83
2018-07-31T15:53:09.260Z,4.67
2018-07-31T15:55:37.067Z,5.58
2018-07-31T15:58:04.966Z,4.80
2018-07-31T16:00:32.783Z,4.80
2018-07-31T16:03:00.607Z,4.47
2018-07-31T16:05:28.475Z,5.47
2018-07-31T16:07:56.247Z,4.70
2018-07-31T16:10:27.296Z,5.27
2018-07-31T16:12:55.159Z,5.43
2018-07-31T16:15:22.972Z,4.80
2018-07-31T16:17:50.836Z,5.10
2018-07-31T16:20:18.709Z,4.87
2018-07-31T16:22:46.648Z,5.37
2018-07-31T16:25:14.565Z,4.33
2018-07-31T16:27:42.407Z,4.60
2018-07-31T16:30:10.270Z,4.70
2018-07-31T16:32:38.089Z,4.83
2018-07-31T16:35:05.985Z,4.43
2018-07-31T16:37:33.802Z,4.90
2018-07-31T16:40:01.621Z,4.40
2018-07-31T16:42:29.433Z,4.83
2018-07-31T16:44:57.714Z,5.30
2018-07-31T16:47:56.316Z,4.33
2018-07-31T16:50:24.088Z,5.30
2018-07-31T16:52:52.010Z,4.53
2018-07-31T16:55:19.840Z,4.57
2018-07-31T16:57:47.569Z,4.00
2018-07-31T17:00:15.375Z,5.43
2018-07-31T17:02:43.171Z,6.57
2018-07-31T17:05:11.071Z,7.87
2018-07-31T17:07:38.983Z,8.43
2018-07-31T17:10:06.801Z,11.03
2018-07-31T17:12:35.120Z,12.80
2018-07-31T17:15:03.513Z,11.20
2018-07-31T17:17:31.354Z,13.87
2018-07-31T17:19:59.180Z,14.90
2018-07-31T17:22:27.047Z,11.90
2018-07-31T17:24:54.962Z,8.27
2018-07-31T17:27:22.816Z,10.00
2018-07-31T17:29:50.687Z,6.83
2018-07-31T17:32:18.508Z,5.43
2018-07-31T17:34:46.368Z,5.40
2018-07-31T17:37:14.207Z,4.43
2018-07-31T17:39:42.144Z,3.70
2018-07-31T17:42:09.968Z,4.33
2018-07-31T17:44:37.838Z,3.90
2018-07-31T17:47:05.807Z,3.90
2018-07-31T17:49:33.726Z,4.07
2018-07-31T17:52:01.556Z,4.37
2018-07-31T17:54:29.555Z,3.70
2018-07-31T17:56:57.347Z,3.53
2018-07-31T17:59:25.200Z,4.30
2018-07-31T18:01:52.986Z,4.70
2018-07-31T18:04:20.872Z,6.63
2018-07-31T18:06:48.683Z,5.70
2018-07-31T18:09:16.470Z,4.80
2018-07-31T18:11:44.323Z,4.07
2018-07-31T18:14:12.173Z,4.80
2018-07-31T18:16:39.954Z,4.87
2018-07-31T18:19:08.460Z,4.63
2018-07-31T18:21:36.383Z,3.63
2018-07-31T18:24:04.996Z,4.93
2018-07-31T18:26:32.768Z,5.27
2018-07-31T18:29:00.961Z,5.17
2018-07-31T18:31:28.894Z,5.83
2018-07-31T18:33:56.681Z,4.60
2018-07-31T18:36:24.624Z,5.33
2018-07-31T18:38:52.650Z,4.53
2018-07-31T18:41:20.454Z,4.43
2018-07-31T18:43:48.319Z,4.00
2018-07-31T18:46:16.155Z,4.63
2018-07-31T18:48:44.000Z,4.67
2018-07-31T18:51:11.868Z,4.17
2018-07-31T18:53:39.716Z,4.10
2018-07-31T18:56:07.789Z,3.77
2018-07-31T18:58:35.579Z,5.37
2018-07-31T19:01:03.531Z,7.43
2018-07-31T19:03:31.403Z,7.40
2018-07-31T19:05:59.173Z,7.63
2018-07-31T19:08:27.014Z,7.03
2018-07-31T19:10:54.790Z,6.27
2018-07-31T19:13:22.738Z,5.90
2018-07-31T19:15:50.801Z,5.53
2018-07-31T19:18:19.615Z,5.10
2018-07-31T19:20:47.519Z,5.40
2018-07-31T19:23:15.291Z,6.10
2018-07-31T19:25:43.295Z,5.00
2018-07-31T19:28:11.260Z,4.77
2018-07-31T19:30:38.986Z,4.73
2018-07-31T19:33:06.908Z,4.90
2018-07-31T19:35:34.705Z,4.83
2018-07-31T19:38:02.535Z,4.78
2018-07-31T19:40:30.413Z,4.40
2018-07-31T19:42:58.063Z,3.87
2018-07-31T19:45:26.028Z,4.93
2018-07-31T19:47:54.048Z,4.40
2018-07-31T19:50:22.815Z,5.20
2018-07-31T19:52:50.907Z,4.03
2018-07-31T19:55:18.885Z,5.70
2018-07-31T19:57:46.688Z,4.80
2018-07-31T20:00:14.556Z,5.03
2018-07-31T20:02:42.555Z,4.63
2018-07-31T20:05:10.422Z,4.97
2018-07-31T20:07:38.604Z,4.20
2018-07-31T20:10:06.791Z,4.57
2018-07-31T20:12:34.735Z,5.63
2018-07-31T20:15:02.647Z,5.73
2018-07-31T20:17:30.465Z,4.50
2018-07-31T20:19:58.313Z,5.53
2018-07-31T20:22:26.207Z,4.97
2018-07-31T20:24:55.807Z,4.30
2018-07-31T20:27:23.658Z,4.50
2018-07-31T20:29:51.494Z,4.27
2018-07-31T20:32:19.279Z,4.60
2018-07-31T20:34:47.407Z,5.20
2018-07-31T20:37:15.148Z,4.67
2018-07-31T20:39:42.974Z,4.50
2018-07-31T20:42:10.878Z,4.83
2018-07-31T20:44:38.687Z,3.90
2018-07-31T20:47:07.209Z,2.80
2018-07-31T20:49:34.983Z,3.07
2018-07-31T20:52:02.855Z,2.80
2018-07-31T20:54:30.679Z,2.77
2018-07-31T20:56:58.456Z,2.70
2018-07-31T20:59:26.638Z,2.27
2018-07-31T21:01:54.495Z,2.50
2018-07-31T21:04:22.543Z,2.57
2018-07-31T21:06:50.376Z,2.60
2018-07-31T21:09:18.783Z,2.60
2018-07-31T21:11:46.787Z,3.17
2018-07-31T21:14:14.809Z,2.60
2018-07-31T21:16:42.716Z,3.50
2018-07-31T21:19:10.567Z,3.80
2018-07-31T21:21:38.344Z,3.33
2018-07-31T21:24:06.564Z,3.33
2018-07-31T21:26:34.489Z,3.20
2018-07-31T21:29:02.408Z,3.40
2018-07-31T21:31:30.334Z,2.70
2018-07-31T21:33:58.148Z,2.57
2018-07-31T21:36:25.979Z,2.97
2018-07-31T21:38:53.740Z,2.73
2018-07-31T21:41:21.567Z,3.07
2018-07-31T21:43:49.401Z,2.57
2018-07-31T21:46:17.214Z,2.77
2018-07-31T21:48:45.041Z,2.63
2018-07-31T21:51:12.796Z,2.87
2018-07-31T21:53:40.625Z,2.60
2018-07-31T21:56:08.484Z,2.57
2018-07-31T21:58:36.291Z,2.50
2018-07-31T22:01:07.093Z,2.30
2018-07-31T22:03:36.247Z,2.43
2018-07-31T22:06:04.760Z,2.70
2018-07-31T22:08:33.043Z,2.40
2018-07-31T22:11:01.116Z,2.07
2018-07-31T22:13:29.016Z,2.60
2018-07-31T22:15:56.854Z,2.27
2018-07-31T22:18:24.663Z,2.17
2018-07-31T22:20:52.487Z,2.60
2018-07-31T22:23:20.342Z,2.30
2018-07-31T22:25:48.195Z,2.47
2018-07-31T22:28:15.969Z,2.20
2018-07-31T22:30:43.811Z,2.40
2018-07-31T22:33:11.748Z,2.03
2018-07-31T22:35:39.706Z,2.30
2018-07-31T22:38:07.530Z,2.60
2018-07-31T22:40:35.364Z,2.37
2018-07-31T22:43:03.247Z,2.60
2018-07-31T22:45:31.116Z,2.30
2018-07-31T22:47:58.828Z,2.60
2018-07-31T22:50:26.684Z,2.30
2018-07-31T22:52:54.463Z,2.30
2018-07-31T22:55:22.239Z,2.30
2018-07-31T22:57:50.080Z,2.37
2018-07-31T23:00:17.965Z,2.43
2018-07-31T23:02:45.834Z,2.13
2018-07-31T23:05:13.563Z,2.40
2018-07-31T23:07:41.388Z,2.47
2018-07-31T23:10:09.193Z,2.20
2018-07-31T23:12:37.039Z,2.03
2018-07-31T23:15:06.273Z,2.30
2018-07-31T23:17:34.147Z,2.73
2018-07-31T23:20:03.093Z,1.97
2018-07-31T23:22:46.201Z,2.07
2018-07-31T23:25:13.960Z,2.10
2018-07-31T23:27:41.730Z,1.90
2018-07-31T23:30:09.799Z,2.20
2018-07-31T23:32:37.984Z,2.10
2018-07-31T23:35:06.073Z,2.40
2018-07-31T23:37:33.970Z,2.27
2018-07-31T23:40:02.723Z,2.17
2018-07-31T23:42:31.177Z,1.97
2018-07-31T23:44:59.064Z,1.60
2018-07-31T23:47:27.983Z,2.30
2018-07-31T23:49:56.291Z,1.80
2018-07-31T23:52:24.173Z,2.10
2018-07-31T23:54:52.191Z,2.23
2018-07-31T23:57:20.071Z,2.10
2018-07-31T23:59:48.095Z,2.07
